Time,TemperatureF,DewpointF,PressureIn,WindDirection,WindDirectionDegrees,WindSpeedMPH,WindSpeedGustMPH,Humidity,HourlyPrecipIn,Conditions,Clouds,dailyrainin,SoftwareType,DateUTC
2013-11-07 00:14:00,59.7,47.9,29.84,NE,45,0.0,-999.0,65,-99.99,,,0.00,Acu-Link.com,2013-11-07 05:14:00,
2013-11-07 00:31:00,60.1,47.9,29.83,NNW,337,2.7,-999.0,64,-99.99,,,0.00,Acu-Link.com,2013-11-07 05:31:00,
2013-11-07 00:56:00,60.1,47.9,29.81,NE,45,1.7,-999.0,64,-99.99,,,0.00,Acu-Link.com,2013-11-07 05:56:00,
2013-11-07 01:18:00,59.9,47.7,29.81,NE,45,1.1,-999.0,64,-99.99,,,0.00,Acu-Link.com,2013-11-07 06:18:00,
2013-11-07 01:45:00,59.9,48.1,29.81,NNE,22,0.0,-999.0,65,-99.99,,,0.00,Acu-Link.com,2013-11-07 06:45:00,
2013-11-07 02:00:00,59.4,48.0,29.79,NE,45,2.2,-999.0,66,-99.99,,,0.00,Acu-Link.com,2013-11-07 07:00:00,
2013-11-07 02:22:00,59.2,47.8,29.79,NNE,22,0.0,-999.0,66,-99.99,,,0.00,Acu-Link.com,2013-11-07 07:22:00,
2013-11-07 02:42:00,58.3,49.3,29.79,NNE,22,0.0,-999.0,72,-99.99,,,0.00,Acu-Link.com,2013-11-07 07:42:00,
2013-11-07 06:08:00,53.1,52.3,29.76,North,0,0.0,-999.0,97,-99.99,,,0.04,Acu-Link.com,2013-11-07 11:08:00,
2013-11-07 06:25:00,53.1,52.3,29.75,NNE,22,0.0,-999.0,97,-99.99,,,0.06,Acu-Link.com,2013-11-07 11:25:00,
2013-11-07 06:57:00,52.9,52.1,29.76,West,270,1.7,-999.0,97,-99.99,,,0.07,Acu-Link.com,2013-11-07 11:57:00,
2013-11-07 08:02:00,53.1,52.3,29.78,West,270,0.0,-999.0,97,-99.99,,,0.10,Acu-Link.com,2013-11-07 13:02:00,
2013-11-07 08:33:00,52.2,51.4,29.78,SW,225,0.0,-999.0,97,-99.99,,,0.15,Acu-Link.com,2013-11-07 13:33:00,
2013-11-07 08:48:00,51.8,51.0,29.79,WSW,247,0.0,-999.0,97,-99.99,,,0.16,Acu-Link.com,2013-11-07 13:48:00,
2013-11-07 12:56:00,49.8,42.9,29.82,SW,225,2.7,-999.0,77,-99.99,,,0.17,Acu-Link.com,2013-11-07 17:56:00,
2013-11-07 15:00:00,52.2,37.9,29.82,SE,135,1.1,-999.0,58,-99.99,,,0.17,Acu-Link.com,2013-11-07 20:00:00,
2013-11-07 15:40:00,49.5,35.3,29.83,SW,225,1.7,-999.0,58,-99.99,,,0.17,Acu-Link.com,2013-11-07 20:40:00,
2013-11-07 16:04:00,49.5,35.3,29.83,West,270,5.8,-999.0,58,-99.99,,,0.17,Acu-Link.com,2013-11-07 21:04:00,
2013-11-07 16:19:00,47.1,34.4,29.84,West,270,1.7,-999.0,61,-99.99,,,0.17,Acu-Link.com,2013-11-07 21:19:00,
2013-11-07 16:37:00,46.4,34.1,29.85,SW,225,4.2,-999.0,62,-99.99,,,0.17,Acu-Link.com,2013-11-07 21:37:00,
2013-11-07 17:05:00,45.0,33.6,29.85,NW,315,1.1,-999.0,64,-99.99,,,0.17,Acu-Link.com,2013-11-07 22:05:00,
2013-11-07 17:43:00,43.3,33.8,29.86,South,180,1.1,-999.0,69,-99.99,,,0.17,Acu-Link.com,2013-11-07 22:43:00,
2013-11-07 19:42:00,41.5,33.2,29.91,South,180,4.2,-999.0,72,-99.99,,,0.17,Acu-Link.com,2013-11-08 00:42:00,
2013-11-07 19:59:00,41.4,30.9,29.92,WSW,247,2.2,-999.0,66,-99.99,,,0.17,Acu-Link.com,2013-11-08 00:59:00,
2013-11-07 20:14:00,41.2,30.7,29.92,WNW,292,0.0,-999.0,66,-99.99,,,0.17,Acu-Link.com,2013-11-08 01:14:00,
2013-11-07 20:29:00,40.8,28.0,29.92,SW,225,3.2,-999.0,60,-99.99,,,0.17,Acu-Link.com,2013-11-08 01:29:00,
2013-11-07 20:45:00,40.3,26.7,29.93,West,270,1.7,-999.0,58,-99.99,,,0.17,Acu-Link.com,2013-11-08 01:45:00,
2013-11-07 21:00:00,39.6,26.9,29.93,NE,45,2.2,-999.0,60,-99.99,,,0.17,Acu-Link.com,2013-11-08 02:00:00,
2013-11-07 21:15:00,39.0,25.9,29.93,West,270,6.3,-999.0,59,-99.99,,,0.17,Acu-Link.com,2013-11-08 02:15:00,
2013-11-07 21:30:00,38.1,26.3,29.93,West,270,1.1,-999.0,62,-99.99,,,0.17,Acu-Link.com,2013-11-08 02:30:00,
2013-11-07 21:45:00,37.9,26.4,29.93,West,270,2.7,-999.0,63,-99.99,,,0.17,Acu-Link.com,2013-11-08 02:45:00,
2013-11-07 22:01:00,38.5,27.4,29.92,West,270,1.7,-999.0,64,-99.99,,,0.17,Acu-Link.com,2013-11-08 03:01:00,
2013-11-07 22:18:00,38.5,27.0,29.92,SW,225,0.0,-999.0,63,-99.99,,,0.17,Acu-Link.com,2013-11-08 03:18:00,
2013-11-07 22:33:00,38.5,27.4,29.91,West,270,2.2,-999.0,64,-99.99,,,0.17,Acu-Link.com,2013-11-08 03:33:00,
2013-11-07 22:48:00,38.7,26.0,29.91,SSW,202,2.2,-999.0,60,-99.99,,,0.17,Acu-Link.com,2013-11-08 03:48:00,
2013-11-07 23:04:00,38.1,25.5,29.91,WSW,247,3.7,-999.0,60,-99.99,,,0.17,Acu-Link.com,2013-11-08 04:04:00,
2013-11-07 23:19:00,37.4,24.8,29.91,SW,225,2.2,-999.0,60,-99.99,,,0.17,Acu-Link.com,2013-11-08 04:19:00,
2013-11-07 23:34:00,37.0,24.8,29.92,SW,225,1.7,-999.0,61,-99.99,,,0.17,Acu-Link.com,2013-11-08 04:34:00,
2013-11-07 23:49:00,36.5,24.0,29.92,SSW,202,1.7,-999.0,60,-99.99,,,0.17,Acu-Link.com,2013-11-08 04:49:00,